createdAt,value
2018-04-07T00:00:30.970Z,955.31
2018-04-07T00:01:30.957Z,955.31
2018-04-07T00:02:30.940Z,955.36
2018-04-07T00:03:30.936Z,955.4
2018-04-07T00:04:30.912Z,955.46
2018-04-07T00:05:30.896Z,955.48
2018-04-07T00:06:30.882Z,955.43
2018-04-07T00:07:30.866Z,955.45
2018-04-07T00:08:30.852Z,955.45
2018-04-07T00:09:30.837Z,955.45
2018-04-07T00:10:30.823Z,955.4
2018-04-07T00:11:30.808Z,955.44
2018-04-07T00:12:30.797Z,955.37
2018-04-07T00:13:30.780Z,955.38
2018-04-07T00:14:30.764Z,955.42
2018-04-07T00:15:30.753Z,955.38
2018-04-07T00:16:30.736Z,955.42
2018-04-07T00:17:30.720Z,955.38
2018-04-07T00:18:30.707Z,955.41
2018-04-07T00:19:30.698Z,955.48
2018-04-07T00:20:30.678Z,955.38
2018-04-07T00:21:30.667Z,955.38
2018-04-07T00:22:30.647Z,955.44
2018-04-07T00:23:30.635Z,955.58
2018-04-07T00:24:30.619Z,955.55
2018-04-07T00:25:30.606Z,955.56
2018-04-07T00:26:30.590Z,955.55
2018-04-07T00:27:30.586Z,955.42
2018-04-07T00:28:30.565Z,955.48
2018-04-07T00:29:30.547Z,955.44
2018-04-07T00:30:30.533Z,955.47
2018-04-07T00:31:30.518Z,955.5
2018-04-07T00:32:30.504Z,955.45
2018-04-07T00:33:30.489Z,955.38
2018-04-07T00:34:30.481Z,955.41
2018-04-07T00:35:30.460Z,955.46
2018-04-07T00:36:30.445Z,955.4
2018-04-07T00:37:30.432Z,955.36
2018-04-07T00:38:30.418Z,955.36
2018-04-07T00:39:30.403Z,955.36
2018-04-07T00:40:30.388Z,955.32
2018-04-07T00:41:30.375Z,955.34
2018-04-07T00:42:30.361Z,955.29
2018-04-07T00:43:30.346Z,955.33
2018-04-07T00:44:30.332Z,955.35
2018-04-07T00:45:30.318Z,955.28
2018-04-07T00:46:30.302Z,955.24
2018-04-07T00:47:30.287Z,955.28
2018-04-07T00:48:30.274Z,955.34
2018-04-07T00:49:30.266Z,955.26
2018-04-07T00:50:30.247Z,955.26
2018-04-07T00:51:30.231Z,955.18
2018-04-07T00:52:30.217Z,955.14
2018-04-07T00:53:30.202Z,955.14
2018-04-07T00:54:30.189Z,955.2
2018-04-07T00:55:30.173Z,955.28
2018-04-07T00:56:30.165Z,955.2
2018-04-07T00:57:30.144Z,955.15
2018-04-07T00:58:30.156Z,955.17
2018-04-07T00:59:30.117Z,955.1
2018-04-07T01:00:30.103Z,955.14
2018-04-07T01:01:30.089Z,955.1
2018-04-07T01:02:30.074Z,955.13
2018-04-07T01:03:30.060Z,955.18
2018-04-07T01:04:30.045Z,955.18
2018-04-07T01:05:30.031Z,955.1
2018-04-07T01:06:30.017Z,955.13
2018-04-07T01:07:30.002Z,955.02
2018-04-07T01:08:29.986Z,955.02
2018-04-07T01:09:29.976Z,955.01
2018-04-07T01:10:29.959Z,955.02
2018-04-07T01:11:29.946Z,954.98
2018-04-07T01:12:29.933Z,954.96
2018-04-07T01:13:29.917Z,954.9
2018-04-07T01:14:29.901Z,954.92
2018-04-07T01:15:29.888Z,954.9
2018-04-07T01:16:29.872Z,955.01
2018-04-07T01:17:29.859Z,955.03
2018-04-07T01:18:29.846Z,954.93
2018-04-07T01:19:29.829Z,954.9
2018-04-07T01:20:29.815Z,954.8
2018-04-07T01:21:29.801Z,954.86
2018-04-07T01:22:29.787Z,954.95
2018-04-07T01:23:29.771Z,954.83
2018-04-07T01:24:29.758Z,954.85
2018-04-07T01:25:29.745Z,954.81
2018-04-07T01:26:29.730Z,954.86
2018-04-07T01:27:29.718Z,954.79
2018-04-07T01:28:29.701Z,954.87
2018-04-07T01:29:29.688Z,954.75
2018-04-07T01:30:29.672Z,954.76
2018-04-07T01:31:29.658Z,954.69
2018-04-07T01:32:29.645Z,954.76
2018-04-07T01:33:29.631Z,954.73
2018-04-07T01:34:29.616Z,954.64
2018-04-07T01:35:29.602Z,954.82
2018-04-07T01:36:29.587Z,954.68
2018-04-07T01:37:29.574Z,954.65
2018-04-07T01:38:29.557Z,954.67
2018-04-07T01:39:29.544Z,954.65
2018-04-07T01:40:29.531Z,954.64
2018-04-07T01:41:29.516Z,954.71
2018-04-07T01:42:29.501Z,954.7
2018-04-07T01:43:29.490Z,954.66
2018-04-07T01:44:29.472Z,954.6
2018-04-07T01:45:29.457Z,954.67
2018-04-07T01:46:29.443Z,954.64
2018-04-07T01:47:29.429Z,954.68
2018-04-07T01:48:29.415Z,954.69
2018-04-07T01:49:29.402Z,954.69
2018-04-07T01:50:29.391Z,954.66
2018-04-07T01:51:29.373Z,954.63
2018-04-07T01:52:29.358Z,954.75
2018-04-07T01:53:29.345Z,954.69
2018-04-07T01:54:29.328Z,954.71
2018-04-07T01:55:29.323Z,954.66
2018-04-07T01:56:29.301Z,954.72
2018-04-07T01:57:29.288Z,954.6
2018-04-07T01:58:29.272Z,954.64
2018-04-07T01:59:29.258Z,954.61
2018-04-07T02:00:29.245Z,954.59
2018-04-07T02:01:29.231Z,954.61
2018-04-07T02:02:29.219Z,954.64
2018-04-07T02:03:29.206Z,954.53
2018-04-07T02:04:29.188Z,954.65
2018-04-07T02:05:29.173Z,954.66
2018-04-07T02:06:29.160Z,954.6
2018-04-07T02:07:29.144Z,954.66
2018-04-07T02:08:29.131Z,954.66
2018-04-07T02:09:29.117Z,954.68
2018-04-07T02:10:29.102Z,954.75
2018-04-07T02:11:29.089Z,954.67
2018-04-07T02:12:29.073Z,954.66
2018-04-07T02:13:29.060Z,954.69
2018-04-07T02:14:29.051Z,954.67
2018-04-07T02:15:29.031Z,954.64
2018-04-07T02:16:29.016Z,954.68
2018-04-07T02:17:29.002Z,954.66
2018-04-07T02:18:28.988Z,954.65
2018-04-07T02:19:28.973Z,954.72
2018-04-07T02:20:28.960Z,954.64
2018-04-07T02:21:28.944Z,954.73
2018-04-07T02:22:28.931Z,954.6
2018-04-07T02:23:28.918Z,954.66
2018-04-07T02:24:28.901Z,954.69
2018-04-07T02:25:28.887Z,954.73
2018-04-07T02:26:28.874Z,954.67
2018-04-07T02:27:28.860Z,954.69
2018-04-07T02:28:28.845Z,954.73
2018-04-07T02:29:28.829Z,954.71
2018-04-07T02:30:28.817Z,954.69
2018-04-07T02:31:28.801Z,954.67
2018-04-07T02:32:28.788Z,954.7
2018-04-07T02:33:28.774Z,954.78
2018-04-07T02:34:28.760Z,954.76
2018-04-07T02:35:28.746Z,954.68
2018-04-07T02:36:28.731Z,954.76
2018-04-07T02:37:28.716Z,954.67
2018-04-07T02:38:28.701Z,954.73
2018-04-07T02:39:28.688Z,954.75
2018-04-07T02:40:28.673Z,954.75
2018-04-07T02:41:28.657Z,954.77
2018-04-07T02:42:28.648Z,954.73
2018-04-07T02:43:28.628Z,954.68
2018-04-07T02:44:28.613Z,954.7
2018-04-07T02:45:28.599Z,954.74
2018-04-07T02:46:28.590Z,954.8
2018-04-07T02:47:28.571Z,954.8
2018-04-07T02:48:28.566Z,954.86
2018-04-07T02:49:28.542Z,954.84
2018-04-07T02:50:28.528Z,954.8
2018-04-07T02:51:28.511Z,954.83
2018-04-07T02:52:28.497Z,954.75
2018-04-07T02:53:28.484Z,954.82
2018-04-07T02:54:28.469Z,954.84
2018-04-07T02:55:28.456Z,954.9
2018-04-07T02:56:28.440Z,954.78
2018-04-07T02:57:28.426Z,954.83
2018-04-07T02:58:28.413Z,954.82
2018-04-07T02:59:28.398Z,954.87
2018-04-07T03:00:28.382Z,954.92
2018-04-07T03:01:28.371Z,954.83
2018-04-07T03:02:28.353Z,954.88
2018-04-07T03:03:28.339Z,954.9
2018-04-07T03:04:28.326Z,954.83
2018-04-07T03:05:28.309Z,954.82
2018-04-07T03:06:28.296Z,954.82
2018-04-07T03:07:28.287Z,954.82
2018-04-07T03:08:28.269Z,954.83
2018-04-07T03:09:28.251Z,954.81
2018-04-07T03:10:28.237Z,954.8
2018-04-07T03:11:28.224Z,954.79
2018-04-07T03:12:28.208Z,954.77
2018-04-07T03:13:28.194Z,954.73
2018-04-07T03:14:28.179Z,954.79
2018-04-07T03:15:28.165Z,954.8
2018-04-07T03:16:28.151Z,954.78
2018-04-07T03:17:28.139Z,954.89
2018-04-07T03:18:28.121Z,954.88
2018-04-07T03:19:28.108Z,954.8
2018-04-07T03:20:28.092Z,954.81
2018-04-07T03:21:28.079Z,954.72
2018-04-07T03:22:28.063Z,954.75
2018-04-07T03:23:28.050Z,954.83
2018-04-07T03:24:28.034Z,954.79
2018-04-07T03:25:28.020Z,954.74
2018-04-07T03:26:28.005Z,954.82
2018-04-07T03:27:27.995Z,954.85
2018-04-07T03:28:27.975Z,954.78
2018-04-07T03:29:27.960Z,954.82
2018-04-07T03:30:27.946Z,954.79
2018-04-07T03:31:27.934Z,954.77
2018-04-07T03:32:27.916Z,954.72
2018-04-07T03:33:27.902Z,954.78
2018-04-07T03:34:27.891Z,954.77
2018-04-07T03:35:27.871Z,954.82
2018-04-07T03:36:27.856Z,954.81
2018-04-07T03:37:27.842Z,954.78
2018-04-07T03:38:27.826Z,954.75
2018-04-07T03:39:27.812Z,954.84
2018-04-07T03:40:27.796Z,954.89
2018-04-07T03:41:27.785Z,954.86
2018-04-07T03:42:27.768Z,954.83
2018-04-07T03:43:27.751Z,954.82
2018-04-07T03:44:27.737Z,954.86
2018-04-07T03:45:27.723Z,954.85
2018-04-07T03:46:27.710Z,954.85
2018-04-07T03:47:27.695Z,954.92
2018-04-07T03:48:27.679Z,954.87
2018-04-07T03:49:27.660Z,954.83
2018-04-07T03:50:27.656Z,954.81
2018-04-07T03:51:27.630Z,954.77
2018-04-07T03:52:27.617Z,954.83
2018-04-07T03:53:27.599Z,954.73
2018-04-07T03:54:27.585Z,954.75
2018-04-07T03:55:27.576Z,954.78
2018-04-07T03:56:27.555Z,954.76
2018-04-07T03:57:27.538Z,954.8
2018-04-07T03:58:27.526Z,954.77
2018-04-07T03:59:27.509Z,954.74
2018-04-07T04:00:27.493Z,954.74
2018-04-07T04:01:27.480Z,954.77
2018-04-07T04:02:27.463Z,954.75
2018-04-07T04:03:27.447Z,954.79
2018-04-07T04:04:27.432Z,954.79
2018-04-07T04:05:27.419Z,954.81
2018-04-07T04:06:27.402Z,954.82
2018-04-07T04:07:27.387Z,954.81
2018-04-07T04:08:27.372Z,954.71
2018-04-07T04:09:27.359Z,954.73
2018-04-07T04:10:27.342Z,954.79
2018-04-07T04:11:27.327Z,954.85
2018-04-07T04:12:27.311Z,954.72
2018-04-07T04:13:27.296Z,954.7
2018-04-07T04:14:27.282Z,954.7
2018-04-07T04:15:27.270Z,954.69
2018-04-07T04:16:27.254Z,954.72
2018-04-07T04:17:27.235Z,954.77
2018-04-07T04:18:27.220Z,954.62
2018-04-07T04:19:27.206Z,954.72
2018-04-07T04:20:27.191Z,954.69
2018-04-07T04:21:27.175Z,954.72
2018-04-07T04:22:27.159Z,954.72
2018-04-07T04:23:27.190Z,954.71
2018-04-07T04:24:27.133Z,954.66
2018-04-07T04:25:27.113Z,954.74
2018-04-07T04:26:27.098Z,954.75
2018-04-07T04:27:27.082Z,954.73
2018-04-07T04:28:27.068Z,954.69
2018-04-07T04:29:27.051Z,954.7
2018-04-07T04:30:27.037Z,954.63
2018-04-07T04:31:27.021Z,954.68
2018-04-07T04:32:27.006Z,954.64
2018-04-07T04:33:26.990Z,954.65
2018-04-07T04:34:26.978Z,954.72
2018-04-07T04:35:26.959Z,954.65
2018-04-07T04:36:26.973Z,954.71
2018-04-07T04:37:26.929Z,954.66
2018-04-07T04:38:26.913Z,954.71
2018-04-07T04:39:26.899Z,954.66
2018-04-07T04:40:26.882Z,954.64
2018-04-07T04:41:26.867Z,954.66
2018-04-07T04:42:26.851Z,954.69
2018-04-07T04:43:26.835Z,954.67
2018-04-07T04:44:26.820Z,954.64
2018-04-07T04:45:26.804Z,954.56
2018-04-07T04:46:26.790Z,954.61
2018-04-07T04:47:26.774Z,954.6
2018-04-07T04:48:26.758Z,954.64
2018-04-07T04:49:26.742Z,954.59
2018-04-07T04:50:26.727Z,954.61
2018-04-07T04:51:26.716Z,954.58
2018-04-07T04:52:26.696Z,954.58
2018-04-07T04:53:26.680Z,954.68
2018-04-07T04:54:26.666Z,954.59
2018-04-07T04:55:26.649Z,954.54
2018-04-07T04:56:26.635Z,954.58
2018-04-07T04:57:26.617Z,954.58
2018-04-07T04:58:26.610Z,954.55
2018-04-07T04:59:26.588Z,954.5
2018-04-07T05:00:26.574Z,954.46
2018-04-07T05:01:26.559Z,954.52
2018-04-07T05:02:26.541Z,954.6
2018-04-07T05:03:26.525Z,954.63
2018-04-07T05:04:26.509Z,954.61
2018-04-07T05:05:26.495Z,954.65
2018-04-07T05:06:26.479Z,954.57
2018-04-07T05:07:26.465Z,954.53
2018-04-07T05:08:26.448Z,954.54
2018-04-07T05:09:26.432Z,954.53
2018-04-07T05:10:26.417Z,954.44
2018-04-07T05:11:26.403Z,954.45
2018-04-07T05:12:26.387Z,954.47
2018-04-07T05:13:26.372Z,954.5
2018-04-07T05:14:26.355Z,954.44
2018-04-07T05:15:26.340Z,954.49
2018-04-07T05:16:26.327Z,954.53
2018-04-07T05:17:26.311Z,954.65
2018-04-07T05:18:26.295Z,954.49
2018-04-07T05:19:26.279Z,954.46
2018-04-07T05:20:26.263Z,954.55
2018-04-07T05:21:26.248Z,954.62
2018-04-07T05:22:26.234Z,954.58
2018-04-07T05:23:26.218Z,954.37
2018-04-07T05:24:26.202Z,954.47
2018-04-07T05:25:26.191Z,954.57
2018-04-07T05:26:26.172Z,954.41
2018-04-07T05:27:26.157Z,954.44
2018-04-07T05:28:26.141Z,954.44
2018-04-07T05:29:26.126Z,954.6
2018-04-07T05:30:26.109Z,954.52
2018-04-07T05:31:26.094Z,954.54
2018-04-07T05:32:26.079Z,954.46
2018-04-07T05:33:26.066Z,954.52
2018-04-07T05:34:26.054Z,954.51
2018-04-07T05:35:26.034Z,954.44
2018-04-07T05:36:26.018Z,954.52
2018-04-07T05:37:26.006Z,954.49
2018-04-07T05:38:25.992Z,954.44
2018-04-07T05:39:25.976Z,954.38
2018-04-07T05:40:25.959Z,954.42
2018-04-07T05:41:25.944Z,954.43
2018-04-07T05:42:25.930Z,954.4
2018-04-07T05:43:25.916Z,954.41
2018-04-07T05:44:25.901Z,954.35
2018-04-07T05:45:25.887Z,954.38
2018-04-07T05:46:25.870Z,954.44
2018-04-07T05:47:25.855Z,954.43
2018-04-07T05:48:25.840Z,954.48
2018-04-07T05:49:25.826Z,954.53
2018-04-07T05:50:25.815Z,954.56
2018-04-07T05:51:25.795Z,954.47
2018-04-07T05:52:25.782Z,954.45
2018-04-07T05:53:25.766Z,954.35
2018-04-07T05:54:25.752Z,954.34
2018-04-07T05:55:25.745Z,954.38
2018-04-07T05:56:25.723Z,954.32
2018-04-07T05:57:25.708Z,954.31
2018-04-07T05:58:25.693Z,954.38
2018-04-07T05:59:25.678Z,954.4
2018-04-07T06:00:25.670Z,954.37
2018-04-07T06:01:25.658Z,954.36
2018-04-07T06:02:25.636Z,954.34
2018-04-07T06:03:25.632Z,954.38
2018-04-07T06:04:25.612Z,954.33
2018-04-07T06:05:25.598Z,954.26
2018-04-07T06:06:25.586Z,954.29
2018-04-07T06:07:25.568Z,954.21
2018-04-07T06:08:25.548Z,954.19
2018-04-07T06:09:25.540Z,954.27
2018-04-07T06:10:25.522Z,954.26
2018-04-07T06:11:25.506Z,954.18
2018-04-07T06:12:25.499Z,954.23
2018-04-07T06:13:25.485Z,954.26
2018-04-07T06:14:25.465Z,954.18
2018-04-07T06:15:25.450Z,954.17
2018-04-07T06:16:25.437Z,954.18
2018-04-07T06:17:25.422Z,954.17
2018-04-07T06:18:25.408Z,954.16
2018-04-07T06:19:25.392Z,954.14
2018-04-07T06:20:25.386Z,954.1
2018-04-07T06:21:25.369Z,954.06
2018-04-07T06:22:25.353Z,954.1
2018-04-07T06:23:25.338Z,954.1
2018-04-07T06:24:25.329Z,954.11
2018-04-07T06:25:25.313Z,954.03
2018-04-07T06:26:25.299Z,954.05
2018-04-07T06:27:25.284Z,954.06
2018-04-07T06:28:25.269Z,953.99
2018-04-07T06:29:25.257Z,954.03
2018-04-07T06:30:25.244Z,953.96
2018-04-07T06:31:25.229Z,954
2018-04-07T06:32:25.215Z,954
2018-04-07T06:33:25.202Z,953.98
2018-04-07T06:34:25.188Z,953.93
2018-04-07T06:35:25.177Z,953.93
2018-04-07T06:36:25.160Z,953.98
2018-04-07T06:37:25.151Z,953.91
2018-04-07T06:38:25.132Z,953.9
2018-04-07T06:39:25.119Z,953.91
2018-04-07T06:40:25.108Z,953.96
2018-04-07T06:41:25.094Z,953.99
2018-04-07T06:42:25.080Z,953.96
2018-04-07T06:43:25.069Z,953.93
2018-04-07T06:44:25.055Z,954
2018-04-07T06:45:25.044Z,953.96
2018-04-07T06:46:25.032Z,954.01
2018-04-07T06:47:25.019Z,954.03
2018-04-07T06:48:25.007Z,954
2018-04-07T06:49:24.994Z,954.07
2018-04-07T06:50:24.983Z,953.97
2018-04-07T06:51:24.972Z,953.97
2018-04-07T06:52:24.961Z,954
2018-04-07T06:53:24.950Z,953.92
2018-04-07T06:54:24.955Z,953.99
2018-04-07T06:55:24.927Z,953.99
2018-04-07T06:56:24.919Z,953.98
2018-04-07T06:57:24.909Z,953.96
2018-04-07T06:58:24.900Z,953.94
2018-04-07T06:59:24.890Z,954
2018-04-07T07:00:24.883Z,953.95
2018-04-07T07:01:24.877Z,954
2018-04-07T07:02:24.867Z,954.02
2018-04-07T07:03:24.858Z,954.03
2018-04-07T07:04:24.849Z,953.95
2018-04-07T07:05:24.840Z,954.16
2018-04-07T07:06:24.835Z,954.14
2018-04-07T07:07:24.827Z,954.19
2018-04-07T07:08:24.820Z,954.31
2018-04-07T07:09:24.812Z,954.41
2018-04-07T07:10:24.804Z,954.34
2018-04-07T07:11:24.799Z,954.21
2018-04-07T07:12:24.793Z,954.09
2018-04-07T07:13:24.787Z,954.01
2018-04-07T07:14:24.779Z,953.99
2018-04-07T07:15:24.772Z,953.97
2018-04-07T07:16:24.766Z,953.98
2018-04-07T07:17:24.768Z,954
2018-04-07T07:18:24.753Z,953.98
2018-04-07T07:19:24.747Z,953.99
2018-04-07T07:20:24.743Z,954.01
2018-04-07T07:21:24.738Z,953.98
2018-04-07T07:22:24.729Z,953.99
2018-04-07T07:23:24.723Z,954.02
2018-04-07T07:24:24.717Z,954
2018-04-07T07:25:24.710Z,954.02
2018-04-07T07:26:24.705Z,954.01
2018-04-07T07:27:24.700Z,954
2018-04-07T07:28:24.692Z,954.01
2018-04-07T07:29:24.688Z,953.91
2018-04-07T07:30:24.681Z,953.96
2018-04-07T07:31:24.675Z,953.93
2018-04-07T07:32:24.668Z,953.9
2018-04-07T07:33:24.665Z,953.96
2018-04-07T07:34:24.655Z,953.95
2018-04-07T07:35:24.649Z,953.92
2018-04-07T07:36:24.650Z,953.92
2018-04-07T07:37:24.637Z,953.94
2018-04-07T07:38:24.630Z,953.92
2018-04-07T07:39:24.624Z,953.9
2018-04-07T07:40:24.619Z,953.89
2018-04-07T07:41:24.611Z,953.89
2018-04-07T07:42:24.604Z,953.9
2018-04-07T07:43:24.596Z,953.94
2018-04-07T07:44:24.593Z,953.91
2018-04-07T07:45:24.584Z,953.89
2018-04-07T07:46:24.578Z,953.93
2018-04-07T07:47:24.571Z,953.9
2018-04-07T07:48:24.564Z,953.9
2018-04-07T07:49:24.556Z,953.87
2018-04-07T07:50:24.550Z,953.86
2018-04-07T07:51:24.541Z,953.85
2018-04-07T07:52:24.537Z,953.86
2018-04-07T07:53:24.530Z,953.83
2018-04-07T07:54:24.520Z,953.83
2018-04-07T07:55:24.513Z,953.84
2018-04-07T07:56:24.508Z,953.84
2018-04-07T07:57:24.502Z,953.84
2018-04-07T07:58:24.493Z,953.76
2018-04-07T07:59:24.493Z,953.76
2018-04-07T08:00:24.484Z,953.83
2018-04-07T08:01:24.471Z,953.81
2018-04-07T08:02:24.465Z,953.76
2018-04-07T08:03:24.459Z,953.78
2018-04-07T08:04:24.452Z,953.72
2018-04-07T08:05:24.465Z,953.79
2018-04-07T08:06:24.441Z,953.78
2018-04-07T08:07:24.429Z,953.83
2018-04-07T08:08:24.424Z,953.88
2018-04-07T08:09:24.417Z,953.85
2018-04-07T08:10:24.414Z,953.83
2018-04-07T08:11:24.404Z,953.89
2018-04-07T08:12:24.395Z,953.85
2018-04-07T08:13:24.389Z,953.82
2018-04-07T08:14:24.383Z,953.79
2018-04-07T08:15:24.375Z,953.78
2018-04-07T08:16:24.367Z,953.88
2018-04-07T08:17:24.361Z,953.88
2018-04-07T08:18:24.354Z,953.84
2018-04-07T08:19:24.348Z,953.8
2018-04-07T08:20:24.341Z,953.91
2018-04-07T08:21:24.336Z,953.85
2018-04-07T08:22:24.329Z,953.87
2018-04-07T08:23:24.320Z,953.9
2018-04-07T08:24:24.316Z,953.98
2018-04-07T08:25:24.308Z,953.87
2018-04-07T08:26:24.301Z,953.86
2018-04-07T08:27:24.330Z,953.9
2018-04-07T08:28:24.287Z,953.88
2018-04-07T08:29:24.281Z,953.87
2018-04-07T08:30:24.277Z,953.84
2018-04-07T08:31:24.267Z,953.9
2018-04-07T08:32:24.260Z,953.91
2018-04-07T08:33:24.254Z,953.97
2018-04-07T08:34:24.247Z,953.87
2018-04-07T08:35:24.242Z,953.9
2018-04-07T08:36:24.239Z,953.9
2018-04-07T08:37:24.240Z,953.92
2018-04-07T08:38:24.221Z,953.89
2018-04-07T08:39:24.275Z,953.91
2018-04-07T08:40:24.209Z,953.85
2018-04-07T08:41:24.202Z,953.81
2018-04-07T08:42:24.196Z,953.87
2018-04-07T08:43:24.191Z,953.9
2018-04-07T08:44:24.183Z,953.83
2018-04-07T08:45:24.197Z,953.86
2018-04-07T08:46:24.171Z,953.82
2018-04-07T08:47:24.164Z,953.86
2018-04-07T08:48:24.159Z,953.88
2018-04-07T08:49:24.153Z,953.82
2018-04-07T08:50:24.147Z,953.81
2018-04-07T08:51:24.140Z,953.85
2018-04-07T08:52:24.133Z,953.83
2018-04-07T08:53:24.143Z,953.89
2018-04-07T08:54:24.121Z,953.84
2018-04-07T08:55:24.116Z,953.85
2018-04-07T08:56:24.108Z,953.83
2018-04-07T08:57:24.116Z,953.84
2018-04-07T08:58:24.100Z,953.85
2018-04-07T08:59:24.091Z,953.86
2018-04-07T09:00:24.085Z,953.8
2018-04-07T09:01:24.079Z,953.89
2018-04-07T09:02:24.074Z,953.83
2018-04-07T09:03:24.066Z,953.84
2018-04-07T09:04:24.061Z,953.68
2018-04-07T09:05:24.056Z,953.86
2018-04-07T09:06:24.051Z,953.93
2018-04-07T09:07:24.044Z,953.9
2018-04-07T09:08:24.038Z,953.88
2018-04-07T09:09:24.032Z,953.86
2018-04-07T09:10:24.026Z,953.87
2018-04-07T09:11:24.020Z,953.8
2018-04-07T09:12:24.054Z,953.83
2018-04-07T09:13:24.010Z,953.85
2018-04-07T09:14:24.003Z,953.87
2018-04-07T09:15:23.998Z,953.89
2018-04-07T09:16:23.994Z,953.86
2018-04-07T09:17:23.987Z,953.91
2018-04-07T09:18:23.980Z,953.92
2018-04-07T09:19:24.028Z,953.9
2018-04-07T09:20:23.969Z,953.9
2018-04-07T09:21:23.967Z,953.77
2018-04-07T09:22:23.960Z,953.86
2018-04-07T09:23:23.955Z,953.91
2018-04-07T09:24:23.950Z,953.91
2018-04-07T09:25:23.942Z,953.87
2018-04-07T09:26:23.948Z,953.84
2018-04-07T09:27:23.936Z,953.88
2018-04-07T09:28:23.927Z,953.87
2018-04-07T09:29:23.922Z,953.92
2018-04-07T09:30:23.917Z,953.9
2018-04-07T09:31:23.912Z,953.89
2018-04-07T09:32:23.915Z,953.9
2018-04-07T09:33:23.900Z,953.85
2018-04-07T09:34:23.899Z,953.88
2018-04-07T09:35:23.895Z,953.91
2018-04-07T09:36:23.884Z,953.96
2018-04-07T09:37:23.880Z,953.93
2018-04-07T09:38:23.875Z,953.94
2018-04-07T09:39:23.872Z,953.93
2018-04-07T09:40:23.864Z,954
2018-04-07T09:41:23.859Z,953.97
2018-04-07T09:42:23.855Z,953.95
2018-04-07T09:43:23.851Z,953.95
2018-04-07T09:44:23.844Z,953.96
2018-04-07T09:45:23.839Z,953.9
2018-04-07T09:46:23.835Z,953.96
2018-04-07T09:47:23.829Z,953.96
2018-04-07T09:48:23.824Z,954.02
2018-04-07T09:49:23.820Z,953.97
2018-04-07T09:50:23.818Z,954
2018-04-07T09:51:23.810Z,953.98
2018-04-07T09:52:23.807Z,953.95
2018-04-07T09:53:23.801Z,953.91
2018-04-07T09:54:23.798Z,953.95
2018-04-07T09:55:23.793Z,953.96
2018-04-07T09:56:23.788Z,953.91
2018-04-07T09:57:23.784Z,953.92
2018-04-07T09:58:23.779Z,954.01
2018-04-07T09:59:23.778Z,953.97
2018-04-07T10:00:23.771Z,953.87
2018-04-07T10:01:23.766Z,953.88
2018-04-07T10:02:23.762Z,953.98
2018-04-07T10:03:23.758Z,953.92
2018-04-07T10:04:23.752Z,953.88
2018-04-07T10:05:23.749Z,953.9
2018-04-07T10:06:23.743Z,953.89
2018-04-07T10:07:23.739Z,953.89
2018-04-07T10:08:23.734Z,953.89
2018-04-07T10:09:23.731Z,953.82
2018-04-07T10:10:23.726Z,953.84
2018-04-07T10:11:23.722Z,953.79
2018-04-07T10:12:23.722Z,953.83
2018-04-07T10:13:23.713Z,953.83
2018-04-07T10:14:23.709Z,953.84
2018-04-07T10:15:23.705Z,953.89
2018-04-07T10:16:23.700Z,953.81
2018-04-07T10:17:23.696Z,953.81
2018-04-07T10:18:23.692Z,953.8
2018-04-07T10:19:23.688Z,953.82
2018-04-07T10:20:23.686Z,953.76
2018-04-07T10:21:23.681Z,953.75
2018-04-07T10:22:23.676Z,953.74
2018-04-07T10:23:23.672Z,953.7
2018-04-07T10:24:23.667Z,953.74
2018-04-07T10:25:23.663Z,953.66
2018-04-07T10:26:23.659Z,953.71
2018-04-07T10:27:23.654Z,953.65
2018-04-07T10:28:23.651Z,953.66
2018-04-07T10:29:23.648Z,953.68
2018-04-07T10:30:23.645Z,953.67
2018-04-07T10:31:23.638Z,953.67
2018-04-07T10:32:23.639Z,953.67
2018-04-07T10:33:23.630Z,953.68
2018-04-07T10:34:23.628Z,953.68
2018-04-07T10:35:23.624Z,953.68
2018-04-07T10:36:23.620Z,953.65
2018-04-07T10:37:23.620Z,953.68
2018-04-07T10:38:23.611Z,953.59
2018-04-07T10:39:23.607Z,953.65
2018-04-07T10:40:23.606Z,953.64
2018-04-07T10:41:23.606Z,953.63
2018-04-07T10:42:23.595Z,953.68
2018-04-07T10:43:23.593Z,953.6
2018-04-07T10:44:23.589Z,953.62
2018-04-07T10:45:23.589Z,953.62
2018-04-07T10:46:23.581Z,953.66
2018-04-07T10:47:23.578Z,953.63
2018-04-07T10:48:23.573Z,953.57
2018-04-07T10:49:23.570Z,953.57
2018-04-07T10:50:23.567Z,953.56
2018-04-07T10:51:23.565Z,953.57
2018-04-07T10:52:23.560Z,953.58
2018-04-07T10:53:23.556Z,953.54
2018-04-07T10:54:23.553Z,953.56
2018-04-07T10:55:23.549Z,953.62
2018-04-07T10:56:23.546Z,953.5
2018-04-07T10:57:23.541Z,953.53
2018-04-07T10:58:23.539Z,953.56
2018-04-07T10:59:23.535Z,953.58
2018-04-07T11:00:23.531Z,953.53
2018-04-07T11:01:23.528Z,953.57
2018-04-07T11:02:23.525Z,953.47
2018-04-07T11:03:23.522Z,953.56
2018-04-07T11:04:23.517Z,953.57
2018-04-07T11:05:23.515Z,953.52
2018-04-07T11:06:23.512Z,953.55
2018-04-07T11:07:23.510Z,953.57
2018-04-07T11:08:23.504Z,953.53
2018-04-07T11:09:23.502Z,953.53
2018-04-07T11:10:23.498Z,953.51
2018-04-07T11:11:23.518Z,953.52
2018-04-07T11:12:23.491Z,953.56
2018-04-07T11:13:23.493Z,953.5
2018-04-07T11:14:23.486Z,953.48
2018-04-07T11:15:23.482Z,953.52
2018-04-07T11:16:23.479Z,953.44
2018-04-07T11:17:23.483Z,953.43
2018-04-07T11:18:23.473Z,953.47
2018-04-07T11:19:23.477Z,953.45
2018-04-07T11:20:23.466Z,953.49
2018-04-07T11:21:23.465Z,953.47
2018-04-07T11:22:23.460Z,953.54
2018-04-07T11:23:23.457Z,953.53
2018-04-07T11:24:23.454Z,953.51
2018-04-07T11:25:23.451Z,953.51
2018-04-07T11:26:23.449Z,953.5
2018-04-07T11:27:23.449Z,953.51
2018-04-07T11:28:23.444Z,953.59
2018-04-07T11:29:23.438Z,953.51
2018-04-07T11:30:23.438Z,953.58
2018-04-07T11:31:23.433Z,953.43
2018-04-07T11:32:23.432Z,953.54
2018-04-07T11:33:23.427Z,953.36
2018-04-07T11:34:23.425Z,953.51
2018-04-07T11:35:23.475Z,953.55
2018-04-07T11:36:23.419Z,953.49
2018-04-07T11:37:23.416Z,953.54
2018-04-07T11:38:23.415Z,953.51
2018-04-07T11:39:23.410Z,953.49
2018-04-07T11:40:23.407Z,953.54
2018-04-07T11:41:23.403Z,953.49
2018-04-07T11:42:23.402Z,953.5
2018-04-07T11:43:23.400Z,953.54
2018-04-07T11:44:23.395Z,953.53
2018-04-07T11:45:23.392Z,953.49
2018-04-07T11:46:23.392Z,953.51
2018-04-07T11:47:23.388Z,953.5
2018-04-07T11:48:23.382Z,953.5
2018-04-07T11:49:23.382Z,953.5
2018-04-07T11:50:23.378Z,953.45
2018-04-07T11:51:23.374Z,953.45
2018-04-07T11:52:23.372Z,953.54
2018-04-07T11:53:23.370Z,953.46
2018-04-07T11:54:23.366Z,953.52
2018-04-07T11:55:23.363Z,953.44
2018-04-07T11:56:23.360Z,953.47
2018-04-07T11:57:23.358Z,953.54
2018-04-07T11:58:23.356Z,953.5
2018-04-07T11:59:23.360Z,953.52
2018-04-07T12:00:23.349Z,953.55
2018-04-07T12:01:23.346Z,953.53
2018-04-07T12:02:23.405Z,953.46
2018-04-07T12:03:23.340Z,953.49
2018-04-07T12:04:23.336Z,953.54
2018-04-07T12:05:23.337Z,953.53
2018-04-07T12:06:23.330Z,953.56
2018-04-07T12:07:23.328Z,953.57
2018-04-07T12:08:23.328Z,953.51
2018-04-07T12:09:23.323Z,953.55
2018-04-07T12:10:23.369Z,953.56
2018-04-07T12:11:23.317Z,953.59
2018-04-07T12:12:23.313Z,953.57
2018-04-07T12:13:23.310Z,953.55
2018-04-07T12:14:23.307Z,953.59
2018-04-07T12:15:23.306Z,953.61
2018-04-07T12:16:23.302Z,953.56
2018-04-07T12:17:23.297Z,953.55
2018-04-07T12:18:23.295Z,953.47
2018-04-07T12:19:23.292Z,953.55
2018-04-07T12:20:23.288Z,953.53
2018-04-07T12:21:23.285Z,953.58
2018-04-07T12:22:23.284Z,953.53
2018-04-07T12:23:23.280Z,953.5
2018-04-07T12:24:23.293Z,953.54
2018-04-07T12:25:23.273Z,953.52
2018-04-07T12:26:23.271Z,953.51
2018-04-07T12:27:23.268Z,953.52
2018-04-07T12:28:23.265Z,953.51
2018-04-07T12:29:23.260Z,953.47
2018-04-07T12:30:23.259Z,953.56
2018-04-07T12:31:23.255Z,953.38
2018-04-07T12:32:23.255Z,953.47